sensor_id;sensor_type;location;lat;lon;timestamp;temperature;humidity
23311;DHT22;11828;51.508;18.118;2023-07-02T00:01:56;31.80;41.60
23311;DHT22;11828;51.508;18.118;2023-07-02T00:04:22;31.80;41.70
23311;DHT22;11828;51.508;18.118;2023-07-02T00:06:48;31.80;41.70
23311;DHT22;11828;51.508;18.118;2023-07-02T00:09:15;31.70;41.70
23311;DHT22;11828;51.508;18.118;2023-07-02T00:11:43;31.70;41.70
23311;DHT22;11828;51.508;18.118;2023-07-02T00:14:12;31.80;41.60
23311;DHT22;11828;51.508;18.118;2023-07-02T00:16:43;31.80;41.40
23311;DHT22;11828;51.508;18.118;2023-07-02T00:19:13;31.80;41.10
23311;DHT22;11828;51.508;18.118;2023-07-02T00:21:40;31.90;40.90
23311;DHT22;11828;51.508;18.118;2023-07-02T00:24:07;31.80;40.70
23311;DHT22;11828;51.508;18.118;2023-07-02T00:26:37;31.90;40.60
23311;DHT22;11828;51.508;18.118;2023-07-02T00:29:04;32.00;40.40
23311;DHT22;11828;51.508;18.118;2023-07-02T00:31:32;32.10;40.00
23311;DHT22;11828;51.508;18.118;2023-07-02T00:34:00;32.30;39.90
23311;DHT22;11828;51.508;18.118;2023-07-02T00:36:30;32.30;39.60
23311;DHT22;11828;51.508;18.118;2023-07-02T00:38:57;32.40;39.40
23311;DHT22;11828;51.508;18.118;2023-07-02T00:41:24;32.40;39.30
23311;DHT22;11828;51.508;18.118;2023-07-02T00:43:51;32.30;39.20
23311;DHT22;11828;51.508;18.118;2023-07-02T00:46:21;32.40;39.20
23311;DHT22;11828;51.508;18.118;2023-07-02T00:48:53;32.40;39.10
23311;DHT22;11828;51.508;18.118;2023-07-02T00:51:24;32.50;38.90
23311;DHT22;11828;51.508;18.118;2023-07-02T00:53:56;32.60;38.70
23311;DHT22;11828;51.508;18.118;2023-07-02T00:56:24;32.60;38.60
23311;DHT22;11828;51.508;18.118;2023-07-02T00:58:54;32.70;38.30
23311;DHT22;11828;51.508;18.118;2023-07-02T01:01:25;32.70;38.30
23311;DHT22;11828;51.508;18.118;2023-07-02T01:04:00;32.60;38.40
23311;DHT22;11828;51.508;18.118;2023-07-02T01:06:29;32.60;38.30
23311;DHT22;11828;51.508;18.118;2023-07-02T01:08:59;32.60;38.30
23311;DHT22;11828;51.508;18.118;2023-07-02T01:11:41;32.60;38.50
23311;DHT22;11828;51.508;18.118;2023-07-02T01:14:32;32.60;38.50
23311;DHT22;11828;51.508;18.118;2023-07-02T01:17:01;32.70;38.40
23311;DHT22;11828;51.508;18.118;2023-07-02T01:22:06;32.70;38.40
23311;DHT22;11828;51.508;18.118;2023-07-02T01:24:33;32.80;38.30
23311;DHT22;11828;51.508;18.118;2023-07-02T01:26:59;32.90;38.30
23311;DHT22;11828;51.508;18.118;2023-07-02T01:29:29;33.00;38.10
23311;DHT22;11828;51.508;18.118;2023-07-02T01:31:57;33.00;38.10
23311;DHT22;11828;51.508;18.118;2023-07-02T01:34:23;33.00;37.90
23311;DHT22;11828;51.508;18.118;2023-07-02T01:36:49;33.10;37.90
23311;DHT22;11828;51.508;18.118;2023-07-02T01:39:15;33.00;38.00
23311;DHT22;11828;51.508;18.118;2023-07-02T01:41:52;32.90;38.10
23311;DHT22;11828;51.508;18.118;2023-07-02T01:44:20;32.90;38.10
23311;DHT22;11828;51.508;18.118;2023-07-02T01:46:46;32.90;37.80
23311;DHT22;11828;51.508;18.118;2023-07-02T01:49:15;32.90;37.80
23311;DHT22;11828;51.508;18.118;2023-07-02T01:51:51;32.90;37.70
23311;DHT22;11828;51.508;18.118;2023-07-02T01:54:19;33.00;37.40
23311;DHT22;11828;51.508;18.118;2023-07-02T01:56:45;33.10;36.70
23311;DHT22;11828;51.508;18.118;2023-07-02T01:59:12;33.10;36.40
23311;DHT22;11828;51.508;18.118;2023-07-02T02:01:38;33.20;35.60
23311;DHT22;11828;51.508;18.118;2023-07-02T02:04:10;33.30;35.20
23311;DHT22;11828;51.508;18.118;2023-07-02T02:06:37;33.30;35.10
23311;DHT22;11828;51.508;18.118;2023-07-02T02:09:04;33.40;34.70
23311;DHT22;11828;51.508;18.118;2023-07-02T02:11:32;33.40;34.50
23311;DHT22;11828;51.508;18.118;2023-07-02T02:13:59;33.40;34.30
23311;DHT22;11828;51.508;18.118;2023-07-02T02:16:27;33.50;34.00
23311;DHT22;11828;51.508;18.118;2023-07-02T02:18:53;33.50;34.00
23311;DHT22;11828;51.508;18.118;2023-07-02T02:21:20;33.50;33.80
23311;DHT22;11828;51.508;18.118;2023-07-02T02:23:47;33.50;33.80
23311;DHT22;11828;51.508;18.118;2023-07-02T02:26:14;33.60;33.80
23311;DHT22;11828;51.508;18.118;2023-07-02T02:28:42;33.60;33.60
23311;DHT22;11828;51.508;18.118;2023-07-02T02:31:09;33.60;33.60
23311;DHT22;11828;51.508;18.118;2023-07-02T02:33:35;33.60;33.60
23311;DHT22;11828;51.508;18.118;2023-07-02T02:36:04;33.70;33.50
23311;DHT22;11828;51.508;18.118;2023-07-02T02:38:31;33.80;33.40
23311;DHT22;11828;51.508;18.118;2023-07-02T02:40:57;33.80;33.30
23311;DHT22;11828;51.508;18.118;2023-07-02T02:43:23;33.80;33.20
23311;DHT22;11828;51.508;18.118;2023-07-02T02:45:49;33.80;33.10
23311;DHT22;11828;51.508;18.118;2023-07-02T02:48:15;33.80;33.30
23311;DHT22;11828;51.508;18.118;2023-07-02T02:50:41;33.80;33.20
23311;DHT22;11828;51.508;18.118;2023-07-02T02:53:09;33.70;33.20
23311;DHT22;11828;51.508;18.118;2023-07-02T02:55:36;33.80;33.40
23311;DHT22;11828;51.508;18.118;2023-07-02T02:58:03;33.80;33.20
23311;DHT22;11828;51.508;18.118;2023-07-02T03:00:30;33.80;33.10
23311;DHT22;11828;51.508;18.118;2023-07-02T03:02:56;33.80;33.20
23311;DHT22;11828;51.508;18.118;2023-07-02T03:05:22;33.80;34.00
23311;DHT22;11828;51.508;18.118;2023-07-02T03:07:49;33.80;33.30
23311;DHT22;11828;51.508;18.118;2023-07-02T03:10:16;33.70;33.10
23311;DHT22;11828;51.508;18.118;2023-07-02T03:12:42;33.70;33.10
23311;DHT22;11828;51.508;18.118;2023-07-02T03:15:08;33.70;33.20
23311;DHT22;11828;51.508;18.118;2023-07-02T03:17:35;33.70;33.40
23311;DHT22;11828;51.508;18.118;2023-07-02T03:20:02;33.70;33.50
23311;DHT22;11828;51.508;18.118;2023-07-02T03:22:34;33.60;33.40
23311;DHT22;11828;51.508;18.118;2023-07-02T03:25:00;33.70;33.20
23311;DHT22;11828;51.508;18.118;2023-07-02T03:27:26;33.70;33.20
23311;DHT22;11828;51.508;18.118;2023-07-02T03:29:53;33.80;33.40
23311;DHT22;11828;51.508;18.118;2023-07-02T03:32:19;33.80;33.40
23311;DHT22;11828;51.508;18.118;2023-07-02T03:34:45;33.80;33.40
23311;DHT22;11828;51.508;18.118;2023-07-02T03:37:11;33.90;33.40
23311;DHT22;11828;51.508;18.118;2023-07-02T03:39:37;33.90;33.30
23311;DHT22;11828;51.508;18.118;2023-07-02T03:42:05;33.90;33.30
23311;DHT22;11828;51.508;18.118;2023-07-02T03:44:31;34.00;33.30
23311;DHT22;11828;51.508;18.118;2023-07-02T03:46:57;34.10;33.20
23311;DHT22;11828;51.508;18.118;2023-07-02T03:49:24;34.10;33.10
23311;DHT22;11828;51.508;18.118;2023-07-02T03:51:50;34.20;33.10
23311;DHT22;11828;51.508;18.118;2023-07-02T03:54:16;34.20;33.30
23311;DHT22;11828;51.508;18.118;2023-07-02T03:56:43;34.20;33.30
23311;DHT22;11828;51.508;18.118;2023-07-02T03:59:09;34.20;33.20
23311;DHT22;11828;51.508;18.118;2023-07-02T04:01:36;34.10;33.40
23311;DHT22;11828;51.508;18.118;2023-07-02T04:04:02;34.10;33.70
23311;DHT22;11828;51.508;18.118;2023-07-02T04:06:28;34.00;33.90
23311;DHT22;11828;51.508;18.118;2023-07-02T04:08:54;34.00;33.90
23311;DHT22;11828;51.508;18.118;2023-07-02T04:11:21;33.90;34.00
23311;DHT22;11828;51.508;18.118;2023-07-02T04:13:47;33.90;34.10
23311;DHT22;11828;51.508;18.118;2023-07-02T04:16:13;33.80;34.30
23311;DHT22;11828;51.508;18.118;2023-07-02T04:18:39;33.80;34.30
23311;DHT22;11828;51.508;18.118;2023-07-02T04:21:05;33.90;34.60
23311;DHT22;11828;51.508;18.118;2023-07-02T04:23:31;33.90;34.60
23311;DHT22;11828;51.508;18.118;2023-07-02T04:25:58;33.80;34.60
23311;DHT22;11828;51.508;18.118;2023-07-02T04:28:24;33.80;34.80
23311;DHT22;11828;51.508;18.118;2023-07-02T04:30:51;33.70;34.90
23311;DHT22;11828;51.508;18.118;2023-07-02T04:33:19;33.60;35.20
23311;DHT22;11828;51.508;18.118;2023-07-02T04:35:48;33.60;35.30
23311;DHT22;11828;51.508;18.118;2023-07-02T04:38:14;33.70;35.30
23311;DHT22;11828;51.508;18.118;2023-07-02T04:40:41;33.80;35.40
23311;DHT22;11828;51.508;18.118;2023-07-02T04:43:10;33.80;35.40
23311;DHT22;11828;51.508;18.118;2023-07-02T04:45:37;33.90;35.50
23311;DHT22;11828;51.508;18.118;2023-07-02T04:48:05;34.00;35.40
23311;DHT22;11828;51.508;18.118;2023-07-02T04:50:32;33.90;35.40
23311;DHT22;11828;51.508;18.118;2023-07-02T04:52:58;33.90;35.50
23311;DHT22;11828;51.508;18.118;2023-07-02T04:55:24;34.00;35.60
23311;DHT22;11828;51.508;18.118;2023-07-02T04:57:50;34.00;35.50
23311;DHT22;11828;51.508;18.118;2023-07-02T05:00:17;34.10;35.60
23311;DHT22;11828;51.508;18.118;2023-07-02T05:02:43;34.00;35.50
23311;DHT22;11828;51.508;18.118;2023-07-02T05:05:09;34.10;35.60
23311;DHT22;11828;51.508;18.118;2023-07-02T05:07:35;34.20;35.60
23311;DHT22;11828;51.508;18.118;2023-07-02T05:10:02;34.20;35.60
23311;DHT22;11828;51.508;18.118;2023-07-02T05:12:28;34.30;35.40
23311;DHT22;11828;51.508;18.118;2023-07-02T05:14:54;34.50;35.50
23311;DHT22;11828;51.508;18.118;2023-07-02T05:17:20;34.50;35.20
23311;DHT22;11828;51.508;18.118;2023-07-02T05:19:46;34.50;35.30
23311;DHT22;11828;51.508;18.118;2023-07-02T05:22:12;34.60;35.30
23311;DHT22;11828;51.508;18.118;2023-07-02T05:24:38;34.70;35.20
23311;DHT22;11828;51.508;18.118;2023-07-02T05:27:06;34.80;35.30
23311;DHT22;11828;51.508;18.118;2023-07-02T05:29:32;34.80;35.20
23311;DHT22;11828;51.508;18.118;2023-07-02T05:31:58;34.70;35.20
23311;DHT22;11828;51.508;18.118;2023-07-02T05:34:24;34.80;35.20
23311;DHT22;11828;51.508;18.118;2023-07-02T05:36:50;34.80;35.90
23311;DHT22;11828;51.508;18.118;2023-07-02T05:39:17;34.70;35.20
23311;DHT22;11828;51.508;18.118;2023-07-02T05:41:43;34.70;35.40
23311;DHT22;11828;51.508;18.118;2023-07-02T05:44:09;34.70;35.60
23311;DHT22;11828;51.508;18.118;2023-07-02T05:46:35;34.60;35.60
23311;DHT22;11828;51.508;18.118;2023-07-02T05:49:01;34.70;35.60
23311;DHT22;11828;51.508;18.118;2023-07-02T05:51:27;34.50;35.70
23311;DHT22;11828;51.508;18.118;2023-07-02T05:53:53;34.50;35.90
23311;DHT22;11828;51.508;18.118;2023-07-02T05:56:19;34.50;35.80
23311;DHT22;11828;51.508;18.118;2023-07-02T05:58:46;34.50;35.90
23311;DHT22;11828;51.508;18.118;2023-07-02T06:01:12;34.50;36.00
23311;DHT22;11828;51.508;18.118;2023-07-02T06:03:40;34.50;36.00
23311;DHT22;11828;51.508;18.118;2023-07-02T06:06:08;34.50;36.00
23311;DHT22;11828;51.508;18.118;2023-07-02T06:08:34;34.60;36.10
23311;DHT22;11828;51.508;18.118;2023-07-02T06:11:01;34.70;36.10
23311;DHT22;11828;51.508;18.118;2023-07-02T06:13:27;34.70;36.00
23311;DHT22;11828;51.508;18.118;2023-07-02T06:15:53;34.70;36.00
23311;DHT22;11828;51.508;18.118;2023-07-02T06:18:20;34.80;35.90
23311;DHT22;11828;51.508;18.118;2023-07-02T06:20:46;35.00;35.80
23311;DHT22;11828;51.508;18.118;2023-07-02T06:23:12;34.90;35.70
23311;DHT22;11828;51.508;18.118;2023-07-02T06:25:38;34.80;35.70
23311;DHT22;11828;51.508;18.118;2023-07-02T06:28:04;35.00;35.80
23311;DHT22;11828;51.508;18.118;2023-07-02T06:30:31;35.10;35.70
23311;DHT22;11828;51.508;18.118;2023-07-02T06:32:57;35.10;35.60
23311;DHT22;11828;51.508;18.118;2023-07-02T06:35:23;35.10;35.20
23311;DHT22;11828;51.508;18.118;2023-07-02T06:37:49;35.20;35.20
23311;DHT22;11828;51.508;18.118;2023-07-02T06:40:15;35.20;35.20
23311;DHT22;11828;51.508;18.118;2023-07-02T06:42:42;35.20;35.40
23311;DHT22;11828;51.508;18.118;2023-07-02T06:45:08;35.20;35.40
23311;DHT22;11828;51.508;18.118;2023-07-02T06:47:34;35.20;35.10
23311;DHT22;11828;51.508;18.118;2023-07-02T06:50:00;35.20;35.20
23311;DHT22;11828;51.508;18.118;2023-07-02T06:52:27;35.20;35.20
23311;DHT22;11828;51.508;18.118;2023-07-02T06:54:52;35.10;35.10
23311;DHT22;11828;51.508;18.118;2023-07-02T06:57:19;35.20;35.20
23311;DHT22;11828;51.508;18.118;2023-07-02T06:59:46;35.10;35.00
23311;DHT22;11828;51.508;18.118;2023-07-02T07:02:12;35.00;35.20
23311;DHT22;11828;51.508;18.118;2023-07-02T07:04:38;35.00;35.10
23311;DHT22;11828;51.508;18.118;2023-07-02T07:07:04;35.00;35.00
23311;DHT22;11828;51.508;18.118;2023-07-02T07:09:30;35.00;35.10
23311;DHT22;11828;51.508;18.118;2023-07-02T07:11:57;34.90;34.90
23311;DHT22;11828;51.508;18.118;2023-07-02T07:14:23;34.90;35.00
23311;DHT22;11828;51.508;18.118;2023-07-02T07:16:50;35.00;34.80
23311;DHT22;11828;51.508;18.118;2023-07-02T07:19:16;34.90;34.90
23311;DHT22;11828;51.508;18.118;2023-07-02T07:21:43;34.90;34.90
23311;DHT22;11828;51.508;18.118;2023-07-02T07:24:09;34.80;34.90
23311;DHT22;11828;51.508;18.118;2023-07-02T07:26:35;34.90;35.00
23311;DHT22;11828;51.508;18.118;2023-07-02T07:29:01;34.80;35.00
23311;DHT22;11828;51.508;18.118;2023-07-02T07:31:29;34.90;35.00
23311;DHT22;11828;51.508;18.118;2023-07-02T07:33:55;35.00;35.00
23311;DHT22;11828;51.508;18.118;2023-07-02T07:36:22;34.90;35.00
23311;DHT22;11828;51.508;18.118;2023-07-02T07:38:48;35.00;34.90
23311;DHT22;11828;51.508;18.118;2023-07-02T07:41:14;35.10;34.90
23311;DHT22;11828;51.508;18.118;2023-07-02T07:43:40;35.10;35.00
23311;DHT22;11828;51.508;18.118;2023-07-02T07:46:06;35.20;35.00
23311;DHT22;11828;51.508;18.118;2023-07-02T07:48:32;35.40;34.90
23311;DHT22;11828;51.508;18.118;2023-07-02T07:50:59;35.50;34.70
23311;DHT22;11828;51.508;18.118;2023-07-02T07:53:26;35.40;34.40
23311;DHT22;11828;51.508;18.118;2023-07-02T07:55:52;35.50;34.60
23311;DHT22;11828;51.508;18.118;2023-07-02T07:58:18;35.40;34.20
23311;DHT22;11828;51.508;18.118;2023-07-02T08:00:45;35.40;35.10
23311;DHT22;11828;51.508;18.118;2023-07-02T08:03:11;35.30;34.60
23311;DHT22;11828;51.508;18.118;2023-07-02T08:05:37;35.20;34.50
23311;DHT22;11828;51.508;18.118;2023-07-02T08:08:03;35.20;34.60
23311;DHT22;11828;51.508;18.118;2023-07-02T08:10:29;35.30;34.80
23311;DHT22;11828;51.508;18.118;2023-07-02T08:12:55;35.40;34.80
23311;DHT22;11828;51.508;18.118;2023-07-02T08:15:22;35.40;34.70
23311;DHT22;11828;51.508;18.118;2023-07-02T08:17:48;35.70;34.50
23311;DHT22;11828;51.508;18.118;2023-07-02T08:20:15;35.90;34.30
23311;DHT22;11828;51.508;18.118;2023-07-02T08:22:42;36.10;34.30
23311;DHT22;11828;51.508;18.118;2023-07-02T08:25:09;36.40;33.70
23311;DHT22;11828;51.508;18.118;2023-07-02T08:27:35;36.70;33.10
23311;DHT22;11828;51.508;18.118;2023-07-02T08:30:01;37.00;32.90
23311;DHT22;11828;51.508;18.118;2023-07-02T08:32:28;37.10;32.50
23311;DHT22;11828;51.508;18.118;2023-07-02T08:34:54;37.20;32.00
23311;DHT22;11828;51.508;18.118;2023-07-02T08:37:21;37.20;31.80
23311;DHT22;11828;51.508;18.118;2023-07-02T08:40:16;37.20;31.50
23311;DHT22;11828;51.508;18.118;2023-07-02T08:42:45;37.10;31.70
23311;DHT22;11828;51.508;18.118;2023-07-02T08:45:15;37.20;31.60
23311;DHT22;11828;51.508;18.118;2023-07-02T08:47:45;37.20;31.10
23311;DHT22;11828;51.508;18.118;2023-07-02T08:50:12;37.20;31.10
23311;DHT22;11828;51.508;18.118;2023-07-02T08:52:39;37.50;31.20
23311;DHT22;11828;51.508;18.118;2023-07-02T08:55:06;38.00;31.10
23311;DHT22;11828;51.508;18.118;2023-07-02T08:57:34;38.30;30.10
23311;DHT22;11828;51.508;18.118;2023-07-02T09:00:03;38.50;29.90
23311;DHT22;11828;51.508;18.118;2023-07-02T09:02:32;38.50;29.70
23311;DHT22;11828;51.508;18.118;2023-07-02T09:05:03;39.20;29.20
23311;DHT22;11828;51.508;18.118;2023-07-02T09:07:30;39.80;27.70
23311;DHT22;11828;51.508;18.118;2023-07-02T09:09:56;40.20;27.60
23311;DHT22;11828;51.508;18.118;2023-07-02T09:15:04;41.00;26.80
23311;DHT22;11828;51.508;18.118;2023-07-02T09:17:36;41.70;24.90
23311;DHT22;11828;51.508;18.118;2023-07-02T09:20:04;42.00;26.60
23311;DHT22;11828;51.508;18.118;2023-07-02T09:22:33;42.80;25.70
23311;DHT22;11828;51.508;18.118;2023-07-02T09:25:00;42.90;25.00
23311;DHT22;11828;51.508;18.118;2023-07-02T09:27:40;42.60;25.00
23311;DHT22;11828;51.508;18.118;2023-07-02T09:30:12;42.20;24.90
23311;DHT22;11828;51.508;18.118;2023-07-02T09:32:44;41.70;25.40
23311;DHT22;11828;51.508;18.118;2023-07-02T09:35:11;41.30;25.50
23311;DHT22;11828;51.508;18.118;2023-07-02T09:37:38;40.90;25.90
23311;DHT22;11828;51.508;18.118;2023-07-02T09:40:08;40.50;25.90
23311;DHT22;11828;51.508;18.118;2023-07-02T09:42:35;39.90;26.10
23311;DHT22;11828;51.508;18.118;2023-07-02T09:45:09;39.80;26.60
23311;DHT22;11828;51.508;18.118;2023-07-02T09:47:42;39.80;26.60
23311;DHT22;11828;51.508;18.118;2023-07-02T09:50:14;39.80;27.00
23311;DHT22;11828;51.508;18.118;2023-07-02T09:52:42;40.00;27.00
23311;DHT22;11828;51.508;18.118;2023-07-02T09:55:12;40.10;26.90
23311;DHT22;11828;51.508;18.118;2023-07-02T09:57:38;40.20;27.10
23311;DHT22;11828;51.508;18.118;2023-07-02T10:00:06;40.10;26.20
23311;DHT22;11828;51.508;18.118;2023-07-02T10:02:33;39.90;26.80
23311;DHT22;11828;51.508;18.118;2023-07-02T10:05:00;39.90;26.20
23311;DHT22;11828;51.508;18.118;2023-07-02T10:07:31;40.10;26.50
23311;DHT22;11828;51.508;18.118;2023-07-02T10:10:01;40.30;25.90
23311;DHT22;11828;51.508;18.118;2023-07-02T10:12:28;40.50;25.60
23311;DHT22;11828;51.508;18.118;2023-07-02T10:14:57;40.60;25.40
23311;DHT22;11828;51.508;18.118;2023-07-02T10:17:25;40.40;25.40
23311;DHT22;11828;51.508;18.118;2023-07-02T10:19:55;40.40;25.50
23311;DHT22;11828;51.508;18.118;2023-07-02T10:22:23;40.30;25.60
23311;DHT22;11828;51.508;18.118;2023-07-02T10:24:59;40.10;25.50
23311;DHT22;11828;51.508;18.118;2023-07-02T10:27:39;39.90;25.70
23311;DHT22;11828;51.508;18.118;2023-07-02T10:30:09;39.80;26.00
23311;DHT22;11828;51.508;18.118;2023-07-02T10:32:36;39.70;26.10
23311;DHT22;11828;51.508;18.118;2023-07-02T10:35:22;39.70;26.20
23311;DHT22;11828;51.508;18.118;2023-07-02T10:37:48;39.80;26.20
23311;DHT22;11828;51.508;18.118;2023-07-02T10:40:14;39.90;26.20
23311;DHT22;11828;51.508;18.118;2023-07-02T10:42:48;39.90;25.60
23311;DHT22;11828;51.508;18.118;2023-07-02T10:45:16;40.00;25.70
23311;DHT22;11828;51.508;18.118;2023-07-02T10:47:43;40.20;25.80
23311;DHT22;11828;51.508;18.118;2023-07-02T10:50:21;40.10;25.90
23311;DHT22;11828;51.508;18.118;2023-07-02T10:52:49;40.20;25.10
23311;DHT22;11828;51.508;18.118;2023-07-02T10:55:19;40.10;25.30
23311;DHT22;11828;51.508;18.118;2023-07-02T10:57:48;40.10;25.20
23311;DHT22;11828;51.508;18.118;2023-07-02T11:00:17;39.80;25.40
23311;DHT22;11828;51.508;18.118;2023-07-02T11:02:44;39.70;25.50
23311;DHT22;11828;51.508;18.118;2023-07-02T11:05:10;39.70;25.60
23311;DHT22;11828;51.508;18.118;2023-07-02T11:07:42;39.80;25.60
23311;DHT22;11828;51.508;18.118;2023-07-02T11:10:08;39.80;25.60
23311;DHT22;11828;51.508;18.118;2023-07-02T11:12:36;39.90;25.30
23311;DHT22;11828;51.508;18.118;2023-07-02T11:15:13;40.10;25.30
23311;DHT22;11828;51.508;18.118;2023-07-02T11:17:40;40.30;24.90
23311;DHT22;11828;51.508;18.118;2023-07-02T11:20:08;40.60;24.70
23311;DHT22;11828;51.508;18.118;2023-07-02T11:22:36;41.00;24.60
23311;DHT22;11828;51.508;18.118;2023-07-02T11:25:16;41.20;24.50
23311;DHT22;11828;51.508;18.118;2023-07-02T11:27:44;41.20;23.70
23311;DHT22;11828;51.508;18.118;2023-07-02T11:30:11;41.20;24.00
23311;DHT22;11828;51.508;18.118;2023-07-02T11:32:52;41.40;24.00
23311;DHT22;11828;51.508;18.118;2023-07-02T11:35:38;41.50;23.30
23311;DHT22;11828;51.508;18.118;2023-07-02T11:38:05;41.60;23.50
23311;DHT22;11828;51.508;18.118;2023-07-02T11:40:32;41.80;23.40
23311;DHT22;11828;51.508;18.118;2023-07-02T11:42:58;41.70;23.00
23311;DHT22;11828;51.508;18.118;2023-07-02T11:45:24;41.80;23.10
23311;DHT22;11828;51.508;18.118;2023-07-02T11:47:50;41.60;23.20
23311;DHT22;11828;51.508;18.118;2023-07-02T11:50:16;41.50;23.50
23311;DHT22;11828;51.508;18.118;2023-07-02T11:52:42;41.50;23.60
23311;DHT22;11828;51.508;18.118;2023-07-02T11:55:09;41.50;23.50
23311;DHT22;11828;51.508;18.118;2023-07-02T11:57:35;41.50;23.20
23311;DHT22;11828;51.508;18.118;2023-07-02T12:00:01;41.40;23.10
23311;DHT22;11828;51.508;18.118;2023-07-02T12:02:28;41.30;23.00
23311;DHT22;11828;51.508;18.118;2023-07-02T12:04:54;41.30;23.20
23311;DHT22;11828;51.508;18.118;2023-07-02T12:07:20;41.20;23.20
23311;DHT22;11828;51.508;18.118;2023-07-02T12:09:48;41.10;23.30
23311;DHT22;11828;51.508;18.118;2023-07-02T12:12:14;41.00;23.30
23311;DHT22;11828;51.508;18.118;2023-07-02T12:14:41;41.00;23.20
23311;DHT22;11828;51.508;18.118;2023-07-02T12:17:10;40.90;22.80
23311;DHT22;11828;51.508;18.118;2023-07-02T12:19:39;40.80;23.20
23311;DHT22;11828;51.508;18.118;2023-07-02T12:22:06;40.90;23.20
23311;DHT22;11828;51.508;18.118;2023-07-02T12:24:34;41.00;22.20
23311;DHT22;11828;51.508;18.118;2023-07-02T12:27:00;41.00;21.90
23311;DHT22;11828;51.508;18.118;2023-07-02T12:29:28;41.00;22.20
23311;DHT22;11828;51.508;18.118;2023-07-02T12:31:54;41.10;22.40
23311;DHT22;11828;51.508;18.118;2023-07-02T12:34:20;41.40;22.00
23311;DHT22;11828;51.508;18.118;2023-07-02T12:36:46;41.60;22.10
23311;DHT22;11828;51.508;18.118;2023-07-02T12:39:12;41.70;22.10
23311;DHT22;11828;51.508;18.118;2023-07-02T12:41:38;41.80;22.20
23311;DHT22;11828;51.508;18.118;2023-07-02T12:44:05;41.80;22.00
23311;DHT22;11828;51.508;18.118;2023-07-02T12:46:31;41.80;21.90
23311;DHT22;11828;51.508;18.118;2023-07-02T12:48:57;41.70;22.20
23311;DHT22;11828;51.508;18.118;2023-07-02T12:51:23;41.50;22.10
23311;DHT22;11828;51.508;18.118;2023-07-02T12:53:49;41.40;21.90
23311;DHT22;11828;51.508;18.118;2023-07-02T12:56:15;41.20;22.00
23311;DHT22;11828;51.508;18.118;2023-07-02T12:58:41;41.00;22.20
23311;DHT22;11828;51.508;18.118;2023-07-02T13:01:08;40.70;22.10
23311;DHT22;11828;51.508;18.118;2023-07-02T13:03:34;40.40;22.20
23311;DHT22;11828;51.508;18.118;2023-07-02T13:06:01;40.10;22.50
23311;DHT22;11828;51.508;18.118;2023-07-02T13:08:27;39.90;22.70
23311;DHT22;11828;51.508;18.118;2023-07-02T13:10:53;39.90;22.90
23311;DHT22;11828;51.508;18.118;2023-07-02T13:13:20;39.70;22.60
23311;DHT22;11828;51.508;18.118;2023-07-02T13:15:46;39.60;22.90
23311;DHT22;11828;51.508;18.118;2023-07-02T13:18:12;39.50;23.00
23311;DHT22;11828;51.508;18.118;2023-07-02T13:20:38;39.40;23.20
23311;DHT22;11828;51.508;18.118;2023-07-02T13:23:04;39.40;23.20
23311;DHT22;11828;51.508;18.118;2023-07-02T13:25:30;39.40;23.30
23311;DHT22;11828;51.508;18.118;2023-07-02T13:27:57;39.40;23.40
23311;DHT22;11828;51.508;18.118;2023-07-02T13:30:23;39.40;23.50
23311;DHT22;11828;51.508;18.118;2023-07-02T13:32:50;39.30;23.60
23311;DHT22;11828;51.508;18.118;2023-07-02T13:35:16;39.40;23.70
23311;DHT22;11828;51.508;18.118;2023-07-02T13:37:42;39.50;24.10
23311;DHT22;11828;51.508;18.118;2023-07-02T13:40:08;39.60;24.20
23311;DHT22;11828;51.508;18.118;2023-07-02T13:42:38;39.80;24.10
23311;DHT22;11828;51.508;18.118;2023-07-02T13:45:05;40.10;24.00
23311;DHT22;11828;51.508;18.118;2023-07-02T13:47:32;40.60;24.00
23311;DHT22;11828;51.508;18.118;2023-07-02T13:49:58;41.50;24.00
23311;DHT22;11828;51.508;18.118;2023-07-02T13:52:24;42.30;23.40
23311;DHT22;11828;51.508;18.118;2023-07-02T13:54:50;42.90;22.70
23311;DHT22;11828;51.508;18.118;2023-07-02T13:57:17;43.10;22.20
23311;DHT22;11828;51.508;18.118;2023-07-02T13:59:43;43.00;22.10
23311;DHT22;11828;51.508;18.118;2023-07-02T14:02:09;42.60;22.20
23311;DHT22;11828;51.508;18.118;2023-07-02T14:04:35;42.10;22.50
23311;DHT22;11828;51.508;18.118;2023-07-02T14:07:03;41.60;22.70
23311;DHT22;11828;51.508;18.118;2023-07-02T14:09:29;41.10;22.90
23311;DHT22;11828;51.508;18.118;2023-07-02T14:11:55;40.70;23.20
23311;DHT22;11828;51.508;18.118;2023-07-02T14:14:21;40.30;23.70
23311;DHT22;11828;51.508;18.118;2023-07-02T14:16:48;40.20;23.80
23311;DHT22;11828;51.508;18.118;2023-07-02T14:19:14;40.20;24.00
23311;DHT22;11828;51.508;18.118;2023-07-02T14:21:41;40.80;24.20
23311;DHT22;11828;51.508;18.118;2023-07-02T14:24:07;41.50;24.20
23311;DHT22;11828;51.508;18.118;2023-07-02T14:26:35;42.10;23.40
23311;DHT22;11828;51.508;18.118;2023-07-02T14:29:01;42.20;22.80
23311;DHT22;11828;51.508;18.118;2023-07-02T14:31:27;41.80;22.60
23311;DHT22;11828;51.508;18.118;2023-07-02T14:33:54;41.50;22.40
23311;DHT22;11828;51.508;18.118;2023-07-02T14:36:20;41.10;22.60
23311;DHT22;11828;51.508;18.118;2023-07-02T14:38:46;40.60;22.80
23311;DHT22;11828;51.508;18.118;2023-07-02T14:41:12;40.20;22.70
23311;DHT22;11828;51.508;18.118;2023-07-02T14:43:38;39.90;22.70
23311;DHT22;11828;51.508;18.118;2023-07-02T14:46:05;39.70;22.70
23311;DHT22;11828;51.508;18.118;2023-07-02T14:48:31;39.80;22.80
23311;DHT22;11828;51.508;18.118;2023-07-02T14:50:59;39.80;22.60
23311;DHT22;11828;51.508;18.118;2023-07-02T14:53:27;39.70;22.70
23311;DHT22;11828;51.508;18.118;2023-07-02T14:55:57;39.60;22.60
23311;DHT22;11828;51.508;18.118;2023-07-02T14:58:25;39.70;22.70
23311;DHT22;11828;51.508;18.118;2023-07-02T15:00:54;39.50;22.60
23311;DHT22;11828;51.508;18.118;2023-07-02T15:03:23;39.50;22.60
23311;DHT22;11828;51.508;18.118;2023-07-02T15:05:51;39.50;22.50
23311;DHT22;11828;51.508;18.118;2023-07-02T15:08:18;39.70;22.60
23311;DHT22;11828;51.508;18.118;2023-07-02T15:10:52;39.80;22.50
23311;DHT22;11828;51.508;18.118;2023-07-02T15:13:19;39.80;22.20
23311;DHT22;11828;51.508;18.118;2023-07-02T15:15:48;39.90;22.10
23311;DHT22;11828;51.508;18.118;2023-07-02T15:18:15;39.90;22.20
23311;DHT22;11828;51.508;18.118;2023-07-02T15:20:43;39.90;21.90
23311;DHT22;11828;51.508;18.118;2023-07-02T15:23:10;39.90;21.90